Time;durP1;ratioP1;P1;durP2;ratioP2;P2;SDS_P1;SDS_P2;PMS_P1;PMS_P2;Temp;Humidity;BMP_temperature;BMP_pressure;BME280_temperature;BME280_humidity;BME280_pressure;Samples;Min_cycle;Max_cycle;Signal;HPM_P1;HPM_P2
2022/08/26 00:01:42;;;;;;;24.35;15.85;;;21.60;99.90;;;;;;5012193;28;20104;-75
2022/08/26 00:04:09;;;;;;;20.33;16.27;;;21.60;99.90;;;;;;5025541;28;20126;-75
2022/08/26 00:06:35;;;;;;;20.08;15.52;;;21.40;99.90;;;;;;5010987;28;20062;-75
2022/08/26 00:09:02;;;;;;;18.17;13.60;;;21.30;99.90;;;;;;5031893;28;20588;-75
2022/08/26 00:11:28;;;;;;;26.13;19.67;;;21.20;99.90;;;;;;5021559;28;20123;-75
2022/08/26 00:13:55;;;;;;;21.70;17.13;;;21.30;99.90;;;;;;5028438;28;20037;-75
2022/08/26 00:16:22;;;;;;;28.55;19.73;;;21.20;99.90;;;;;;5032555;28;20088;-75
2022/08/26 00:18:48;;;;;;;22.10;17.70;;;21.20;99.90;;;;;;5015434;28;20042;-75
2022/08/26 00:21:15;;;;;;;28.08;20.20;;;21.20;99.90;;;;;;5032061;28;20048;-75
2022/08/26 00:23:41;;;;;;;30.10;21.85;;;21.20;99.90;;;;;;4995446;28;20458;-75
2022/08/26 00:26:07;;;;;;;27.40;20.50;;;21.20;99.90;;;;;;4997824;28;20064;-75
2022/08/26 00:28:34;;;;;;;31.77;23.83;;;21.10;99.90;;;;;;5026480;28;20038;-75
2022/08/26 00:31:00;;;;;;;30.02;22.67;;;21.00;99.90;;;;;;5009247;28;20033;-75
2022/08/26 00:33:25;;;;;;;29.45;23.88;;;21.00;99.90;;;;;;5025190;28;21973;-74
2022/08/26 00:35:51;;;;;;;27.45;21.17;;;21.00;99.90;;;;;;4979039;28;20065;-75
2022/08/26 00:38:17;;;;;;;33.58;26.73;;;21.00;99.90;;;;;;4995422;28;20069;-74
2022/08/26 00:40:47;;;;;;;35.88;26.48;;;21.00;99.90;;;;;;5009072;28;20544;-75
2022/08/26 00:43:14;;;;;;;30.63;23.73;;;21.00;99.90;;;;;;5029166;28;20053;-75
2022/08/26 00:45:58;;;;;;;38.75;27.90;;;20.90;99.90;;;;;;5041065;28;20064;-75
2022/08/26 00:48:26;;;;;;;38.30;29.00;;;20.90;99.90;;;;;;5028200;28;20120;-75
2022/08/26 00:50:58;;;;;;;42.13;29.33;;;20.80;99.90;;;;;;5027804;28;20378;-75
2022/08/26 00:53:28;;;;;;;43.50;31.70;;;20.70;99.90;;;;;;5029573;28;20045;-75
2022/08/26 00:56:02;;;;;;;40.25;31.98;;;20.70;99.90;;;;;;5023725;28;20056;-75
2022/08/26 00:58:35;;;;;;;48.13;35.38;;;20.70;99.90;;;;;;5029418;28;20049;-75
2022/08/26 01:01:01;;;;;;;45.53;35.05;;;20.60;99.90;;;;;;5014802;28;20041;-75
2022/08/26 01:03:29;;;;;;;44.10;33.65;;;20.60;99.90;;;;;;5030348;28;20095;-75
2022/08/26 01:05:59;;;;;;;50.78;36.50;;;20.60;99.90;;;;;;5029545;28;20041;-75
2022/08/26 01:08:25;;;;;;;44.60;35.50;;;20.60;99.90;;;;;;5014739;28;20041;-75
2022/08/26 01:10:52;;;;;;;51.35;37.03;;;20.60;99.90;;;;;;5031750;28;20072;-75
2022/08/26 01:13:18;;;;;;;48.78;35.60;;;20.60;99.90;;;;;;5031550;28;20049;-75
2022/08/26 01:15:50;;;;;;;50.33;36.58;;;20.50;99.90;;;;;;5029758;28;20127;-75
2022/08/26 01:18:16;;;;;;;52.22;37.63;;;20.50;99.90;;;;;;5030501;28;20084;-75
2022/08/26 01:20:45;;;;;;;49.70;36.28;;;20.50;99.90;;;;;;5014567;28;20042;-75
2022/08/26 01:23:11;;;;;;;47.50;35.33;;;20.50;99.90;;;;;;5028235;28;20045;-75
2022/08/26 01:25:48;;;;;;;51.40;36.97;;;20.50;99.90;;;;;;5021877;28;20041;-75
2022/08/26 01:28:20;;;;;;;46.28;35.88;;;20.40;99.90;;;;;;5011507;28;20045;-75
2022/08/26 01:30:51;;;;;;;49.20;36.00;;;20.40;99.90;;;;;;5038352;28;20042;-75
2022/08/26 01:33:23;;;;;;;52.50;37.78;;;20.40;99.90;;;;;;5027239;28;20053;-75
2022/08/26 01:35:49;;;;;;;49.95;36.13;;;20.40;99.90;;;;;;5029354;28;20417;-75
2022/08/26 01:38:17;;;;;;;51.05;36.55;;;20.40;99.90;;;;;;5028162;28;20038;-75
2022/08/26 01:40:44;;;;;;;56.35;37.10;;;20.40;99.90;;;;;;5030651;28;20048;-75
2022/08/26 01:43:18;;;;;;;49.75;35.83;;;20.40;99.90;;;;;;5029538;28;20482;-76
2022/08/26 01:45:45;;;;;;;47.97;35.25;;;20.40;99.90;;;;;;5019690;28;20061;-75
2022/08/26 01:48:15;;;;;;;53.88;35.75;;;20.40;99.90;;;;;;5029307;28;20053;-75
2022/08/26 01:50:43;;;;;;;50.07;35.17;;;20.50;99.90;;;;;;5022593;28;20113;-75
2022/08/26 01:53:13;;;;;;;50.33;34.53;;;20.40;99.90;;;;;;4997038;28;20381;-75
2022/08/26 01:55:43;;;;;;;50.40;34.67;;;20.50;99.90;;;;;;5029119;28;20052;-75
2022/08/26 01:58:19;;;;;;;47.55;32.88;;;20.50;99.90;;;;;;5010567;28;20041;-75
2022/08/26 02:00:46;;;;;;;48.17;35.00;;;20.50;99.90;;;;;;5030129;28;20385;-75
2022/08/26 02:03:17;;;;;;;52.85;32.08;;;20.60;99.90;;;;;;5030095;28;20061;-75
2022/08/26 02:05:52;;;;;;;45.92;33.70;;;20.60;99.90;;;;;;5029725;28;20052;-75
2022/08/26 02:08:21;;;;;;;51.83;33.33;;;20.60;99.90;;;;;;5026116;28;20045;-75
2022/08/26 02:10:47;;;;;;;46.55;31.27;;;20.60;99.90;;;;;;5014648;28;20045;-75
2022/08/26 02:13:13;;;;;;;48.42;30.83;;;20.70;99.90;;;;;;5030407;28;20385;-75
2022/08/26 02:15:42;;;;;;;50.58;33.05;;;20.70;99.90;;;;;;5031438;28;20049;-75
2022/08/26 02:18:09;;;;;;;53.30;31.80;;;20.70;99.90;;;;;;5031239;28;20123;-75
2022/08/26 02:20:36;;;;;;;52.90;33.70;;;20.70;99.90;;;;;;5033710;28;20050;-75
2022/08/26 02:23:02;;;;;;;58.58;33.13;;;20.70;99.90;;;;;;5033657;28;20043;-76
2022/08/26 02:25:42;;;;;;;48.08;32.10;;;20.70;99.90;;;;;;5001212;28;20037;-75
2022/08/26 02:28:10;;;;;;;52.00;32.15;;;20.70;99.90;;;;;;5009970;28;20053;-75
2022/08/26 02:30:39;;;;;;;53.10;32.47;;;20.80;99.90;;;;;;5033838;28;20533;-75
2022/08/26 02:33:05;;;;;;;48.88;30.88;;;20.80;99.90;;;;;;5033223;28;20053;-75
2022/08/26 02:35:32;;;;;;;50.03;30.63;;;20.80;99.90;;;;;;5016859;28;20038;-75
2022/08/26 02:37:59;;;;;;;50.83;30.38;;;20.80;99.90;;;;;;5031220;28;20073;-76
2022/08/26 02:40:30;;;;;;;55.72;30.33;;;20.80;99.90;;;;;;5033876;28;20386;-75
2022/08/26 02:42:56;;;;;;;51.30;30.00;;;20.80;99.90;;;;;;5017791;28;20433;-75
2022/08/26 02:45:23;;;;;;;45.20;28.80;;;20.80;99.90;;;;;;5026900;28;20041;-75
2022/08/26 02:47:50;;;;;;;56.60;31.45;;;20.80;99.90;;;;;;5030035;28;20057;-75
2022/08/26 02:50:16;;;;;;;50.47;30.38;;;20.80;99.90;;;;;;5032803;28;20072;-75
2022/08/26 02:52:42;;;;;;;50.72;30.15;;;20.70;99.90;;;;;;5033505;28;20045;-75
2022/08/26 02:55:08;;;;;;;46.28;29.88;;;20.70;99.90;;;;;;5000105;28;20049;-75
2022/08/26 02:57:34;;;;;;;53.28;31.85;;;20.70;99.90;;;;;;5033595;28;20041;-75
2022/08/26 03:00:00;;;;;;;52.65;31.35;;;20.70;99.90;;;;;;4999489;28;20150;-75
2022/08/26 03:02:27;;;;;;;47.72;30.60;;;20.70;99.90;;;;;;5033503;28;20049;-75
2022/08/26 03:04:53;;;;;;;53.40;31.17;;;20.70;99.90;;;;;;5032188;28;20053;-75
2022/08/26 03:07:19;;;;;;;48.53;30.23;;;20.70;99.90;;;;;;5032855;28;20044;-75
2022/08/26 03:09:45;;;;;;;55.45;30.75;;;20.80;99.90;;;;;;5014307;28;20045;-75
2022/08/26 03:12:11;;;;;;;48.30;30.00;;;20.80;99.90;;;;;;5033251;28;20092;-75
2022/08/26 03:14:37;;;;;;;58.05;30.58;;;20.80;99.90;;;;;;5032985;28;20131;-75
2022/08/26 03:17:04;;;;;;;53.05;30.25;;;20.80;99.90;;;;;;5031202;28;20088;-75
2022/08/26 03:19:30;;;;;;;51.38;29.48;;;20.80;99.90;;;;;;5028185;28;20067;-75
2022/08/26 03:21:57;;;;;;;54.47;30.10;;;20.80;99.90;;;;;;5033460;28;20045;-75
2022/08/26 03:24:24;;;;;;;55.45;31.02;;;20.80;99.90;;;;;;5016511;28;20052;-75
2022/08/26 03:26:50;;;;;;;51.63;30.42;;;20.80;99.90;;;;;;5032327;28;20045;-75
2022/08/26 03:32:02;;;;;;;57.03;31.10;;;20.80;99.90;;;;;;5032173;28;20042;-75
2022/08/26 03:34:28;;;;;;;51.78;30.20;;;20.80;99.90;;;;;;5032150;28;20041;-75
2022/08/26 03:36:54;;;;;;;52.90;31.65;;;20.90;99.90;;;;;;5015949;28;20052;-75
2022/08/26 03:39:20;;;;;;;52.60;30.58;;;20.90;99.90;;;;;;5031241;28;20121;-75
2022/08/26 03:41:46;;;;;;;51.70;30.23;;;20.90;99.90;;;;;;5033181;28;20125;-75
2022/08/26 03:44:12;;;;;;;49.60;30.00;;;20.90;99.90;;;;;;5032040;28;20095;-75
2022/08/26 03:46:39;;;;;;;54.30;30.50;;;20.90;99.90;;;;;;5033161;28;20103;-75
2022/08/26 03:49:06;;;;;;;56.50;31.42;;;20.90;99.90;;;;;;5029682;28;20064;-75
2022/08/26 03:51:38;;;;;;;60.97;31.58;;;20.90;99.90;;;;;;5029697;28;20042;-74
2022/08/26 03:54:06;;;;;;;57.22;32.13;;;20.90;99.90;;;;;;5029757;28;20044;-75
2022/08/26 03:56:32;;;;;;;59.85;31.00;;;20.90;99.90;;;;;;5027716;28;20382;-74
2022/08/26 03:58:59;;;;;;;56.72;31.63;;;20.90;99.90;;;;;;5013282;28;20424;-74
2022/08/26 04:01:26;;;;;;;57.60;31.58;;;20.90;99.90;;;;;;4996127;28;20077;-74
2022/08/26 04:03:58;;;;;;;56.05;31.75;;;20.90;99.90;;;;;;5032166;28;20061;-74
2022/08/26 04:06:32;;;;;;;57.72;31.33;;;20.90;99.90;;;;;;5027994;28;20458;-74
2022/08/26 04:09:04;;;;;;;61.50;32.50;;;20.90;99.90;;;;;;5030266;28;20079;-74
2022/08/26 04:11:31;;;;;;;60.47;33.55;;;21.00;99.90;;;;;;5031392;28;20482;-74
2022/08/26 04:13:58;;;;;;;63.88;33.58;;;21.00;99.90;;;;;;5032438;28;20119;-74
2022/08/26 04:16:26;;;;;;;59.92;34.67;;;21.00;99.90;;;;;;5028581;28;20124;-74
2022/08/26 04:18:52;;;;;;;57.53;32.58;;;21.00;99.90;;;;;;5048136;28;20045;-74
2022/08/26 04:21:18;;;;;;;58.85;33.55;;;21.00;99.90;;;;;;5031276;28;20049;-74
2022/08/26 04:23:44;;;;;;;55.63;31.70;;;21.00;99.90;;;;;;5014696;28;20080;-74
2022/08/26 04:26:10;;;;;;;54.63;30.35;;;21.10;99.90;;;;;;5029202;28;20118;-74
2022/08/26 04:28:36;;;;;;;50.97;30.55;;;21.10;99.90;;;;;;5013116;28;20042;-74
2022/08/26 04:31:02;;;;;;;51.63;30.10;;;21.10;99.90;;;;;;5032226;28;20436;-74
2022/08/26 04:33:28;;;;;;;48.05;29.85;;;21.10;99.90;;;;;;5032094;28;20044;-74
2022/08/26 04:36:02;;;;;;;52.17;28.38;;;21.10;99.90;;;;;;5014117;28;20054;-74
2022/08/26 04:38:29;;;;;;;48.97;27.55;;;21.10;99.90;;;;;;5031811;28;20049;-74
2022/08/26 04:40:55;;;;;;;49.42;26.27;;;21.00;99.90;;;;;;5015866;28;20116;-74
2022/08/26 04:43:21;;;;;;;51.80;27.30;;;21.10;99.90;;;;;;5032120;28;20076;-74
2022/08/26 04:45:47;;;;;;;53.03;26.88;;;21.10;99.90;;;;;;5031138;28;20076;-74
2022/08/26 04:48:13;;;;;;;45.13;25.75;;;21.10;99.90;;;;;;5009843;28;20442;-74
2022/08/26 04:50:38;;;;;;;48.30;27.23;;;21.10;99.90;;;;;;5048038;28;20084;-74
2022/08/26 04:53:04;;;;;;;45.35;25.70;;;21.00;99.90;;;;;;4999194;28;20496;-74
2022/08/26 04:55:30;;;;;;;46.50;25.55;;;21.00;99.90;;;;;;5015656;28;20041;-74
2022/08/26 04:57:56;;;;;;;48.35;26.25;;;21.00;99.90;;;;;;4979322;28;20041;-74
2022/08/26 05:00:22;;;;;;;45.15;26.17;;;21.10;99.90;;;;;;5031704;28;20041;-74
2022/08/26 05:02:48;;;;;;;51.25;26.23;;;21.10;99.90;;;;;;4998210;28;20049;-74
2022/08/26 05:05:14;;;;;;;52.65;26.90;;;21.10;99.90;;;;;;5014781;28;20075;-74
2022/08/26 05:07:40;;;;;;;50.70;26.90;;;21.10;99.90;;;;;;4996062;28;20183;-74
2022/08/26 05:10:08;;;;;;;48.60;26.83;;;21.20;99.90;;;;;;5026316;28;20034;-74
2022/08/26 05:12:34;;;;;;;40.92;25.90;;;21.20;99.90;;;;;;5025650;28;20060;-74
2022/08/26 05:15:00;;;;;;;49.70;25.27;;;21.20;99.90;;;;;;5026218;28;20343;-74
2022/08/26 05:17:26;;;;;;;42.75;24.65;;;21.30;99.90;;;;;;5015050;28;20045;-74
2022/08/26 05:19:52;;;;;;;43.85;24.90;;;21.30;99.90;;;;;;5014565;28;20462;-74
2022/08/26 05:22:18;;;;;;;41.40;23.67;;;21.40;99.90;;;;;;5030715;28;20629;-74
2022/08/26 05:24:45;;;;;;;41.58;23.90;;;21.40;99.90;;;;;;5030816;28;20045;-74
2022/08/26 05:27:12;;;;;;;39.92;23.25;;;21.40;99.90;;;;;;5031532;28;20065;-74
2022/08/26 05:29:39;;;;;;;43.42;24.13;;;21.40;99.90;;;;;;5031568;28;20045;-74
2022/08/26 05:32:06;;;;;;;43.28;24.25;;;21.40;99.90;;;;;;5015024;28;20129;-74
2022/08/26 05:34:32;;;;;;;47.97;23.45;;;21.40;99.90;;;;;;5030102;28;20111;-74
2022/08/26 05:36:58;;;;;;;43.03;24.15;;;21.40;99.90;;;;;;4992103;28;20076;-74
2022/08/26 05:39:24;;;;;;;45.55;23.58;;;21.40;99.90;;;;;;5014885;28;20091;-74
2022/08/26 05:41:50;;;;;;;46.78;24.92;;;21.40;99.90;;;;;;5031046;28;20042;-74
2022/08/26 05:44:17;;;;;;;43.92;23.70;;;21.40;99.90;;;;;;5031297;28;20037;-74
2022/08/26 05:46:44;;;;;;;41.97;22.30;;;21.40;99.90;;;;;;5030227;28;20474;-74
2022/08/26 05:49:12;;;;;;;42.95;22.83;;;21.50;99.90;;;;;;5031449;28;20042;-74
2022/08/26 05:51:38;;;;;;;44.03;23.33;;;21.50;99.90;;;;;;5034904;28;20045;-75
2022/08/26 05:54:07;;;;;;;40.90;23.75;;;21.60;99.90;;;;;;5035506;28;20048;-74
2022/08/26 05:56:33;;;;;;;39.75;23.13;;;21.60;99.90;;;;;;4998677;28;20436;-74
2022/08/26 05:59:01;;;;;;;41.88;24.17;;;21.70;99.90;;;;;;5015429;28;20042;-74
2022/08/26 06:01:28;;;;;;;39.85;22.65;;;21.60;99.90;;;;;;5031569;28;20132;-74
2022/08/26 06:04:00;;;;;;;40.42;23.70;;;21.60;99.90;;;;;;5035051;28;20058;-75
2022/08/26 06:06:32;;;;;;;43.17;22.67;;;21.60;99.90;;;;;;5014472;28;20473;-74
2022/08/26 06:09:00;;;;;;;34.53;21.63;;;21.60;99.90;;;;;;5009411;28;20494;-74
2022/08/26 06:11:28;;;;;;;40.20;22.92;;;21.70;99.90;;;;;;4998725;28;20095;-74
2022/08/26 06:13:55;;;;;;;35.63;21.88;;;21.80;99.90;;;;;;5017528;28;20092;-74
2022/08/26 06:16:23;;;;;;;40.38;22.70;;;21.80;99.90;;;;;;5033050;28;20477;-74
2022/08/26 06:18:50;;;;;;;38.90;21.83;;;21.70;99.90;;;;;;5013445;28;20045;-74
2022/08/26 06:21:29;;;;;;;39.88;23.33;;;21.70;99.90;;;;;;5031204;28;20045;-74
2022/08/26 06:26:47;;;;;;;33.75;20.73;;;21.80;99.90;;;;;;5031849;28;20136;-74
2022/08/26 06:29:13;;;;;;;;;;;21.90;99.90;;;;;;5032526;28;20057;-74
2022/08/26 06:31:39;;;;;;;34.45;20.63;;;21.90;99.90;;;;;;5034619;28;19966;-74
2022/08/26 06:34:05;;;;;;;37.90;19.02;;;21.90;99.90;;;;;;5034188;28;20038;-74
2022/08/26 06:36:32;;;;;;;33.55;20.30;;;21.90;99.90;;;;;;5000661;28;20390;-74
2022/08/26 06:39:01;;;;;;;34.38;19.70;;;22.20;99.90;;;;;;5017970;28;20306;-74
2022/08/26 06:41:30;;;;;;;34.05;19.65;;;22.00;99.90;;;;;;5034426;28;20056;-74
2022/08/26 06:43:56;;;;;;;38.65;18.75;;;22.10;99.90;;;;;;5033993;28;20041;-74
2022/08/26 06:46:23;;;;;;;33.88;19.42;;;22.10;99.90;;;;;;5033782;28;20037;-74
2022/08/26 06:48:49;;;;;;;37.58;19.65;;;22.20;99.90;;;;;;5028947;28;20593;-74
2022/08/26 06:51:19;;;;;;;30.58;18.70;;;22.20;99.90;;;;;;5028769;28;20120;-74
2022/08/26 06:53:47;;;;;;;30.80;18.43;;;22.30;99.90;;;;;;5031031;28;20042;-74
2022/08/26 06:56:16;;;;;;;31.33;19.00;;;22.30;99.90;;;;;;4998173;28;20058;-75
2022/08/26 06:58:42;;;;;;;32.20;18.80;;;22.30;99.90;;;;;;5006756;28;20044;-75
2022/08/26 07:01:36;;;;;;;32.22;18.58;;;22.40;99.90;;;;;;5029275;28;20041;-75
2022/08/26 07:04:04;;;;;;;34.42;17.92;;;22.40;99.90;;;;;;5031503;28;20045;-75
2022/08/26 07:06:36;;;;;;;29.65;17.77;;;22.50;99.90;;;;;;5032131;28;20034;-75
2022/08/26 07:09:04;;;;;;;31.20;18.83;;;22.60;99.90;;;;;;5016614;28;20120;-76
2022/08/26 07:11:32;;;;;;;27.50;16.70;;;22.80;99.90;;;;;;5031702;28;20045;-76
2022/08/26 07:13:57;;;;;;;28.90;16.25;;;23.10;99.90;;;;;;5033673;28;20049;-75
2022/08/26 07:16:25;;;;;;;33.65;16.98;;;23.20;99.90;;;;;;5033877;28;20041;-76
2022/08/26 07:18:52;;;;;;;24.75;15.60;;;23.40;99.90;;;;;;5027487;28;20048;-75
2022/08/26 07:21:19;;;;;;;24.88;15.07;;;23.40;99.90;;;;;;5024160;28;20037;-76
2022/08/26 07:23:45;;;;;;;30.20;16.60;;;23.50;99.90;;;;;;4995370;28;20037;-75
2022/08/26 07:26:15;;;;;;;29.77;15.73;;;23.50;99.90;;;;;;5049438;28;20045;-75
2022/08/26 07:28:43;;;;;;;25.15;15.10;;;23.50;99.90;;;;;;5013024;28;20076;-75
2022/08/26 07:31:11;;;;;;;25.88;14.98;;;23.30;99.90;;;;;;5004891;28;20061;-75
2022/08/26 07:33:38;;;;;;;28.75;15.25;;;23.20;99.90;;;;;;5011512;28;20041;-75
2022/08/26 07:36:05;;;;;;;27.65;15.80;;;23.00;99.90;;;;;;5028064;28;20125;-75
2022/08/26 07:38:32;;;;;;;32.97;15.18;;;22.90;99.90;;;;;;5025985;28;20085;-75
2022/08/26 07:40:58;;;;;;;29.17;15.35;;;22.70;99.90;;;;;;5033298;28;20099;-75
2022/08/26 07:43:24;;;;;;;26.67;14.85;;;22.70;99.90;;;;;;5032690;28;20473;-75
2022/08/26 07:45:50;;;;;;;32.90;16.48;;;22.70;99.90;;;;;;5032666;28;20466;-75
2022/08/26 07:48:16;;;;;;;27.65;15.65;;;22.60;99.90;;;;;;5032070;28;20521;-75
2022/08/26 07:50:43;;;;;;;28.08;16.05;;;22.50;99.90;;;;;;5025320;28;20053;-75
2022/08/26 07:53:09;;;;;;;30.00;15.05;;;22.40;99.90;;;;;;5009682;28;20034;-75
2022/08/26 07:55:35;;;;;;;33.45;15.45;;;22.50;99.90;;;;;;5028564;28;20056;-75
2022/08/26 07:58:01;;;;;;;27.92;14.95;;;22.50;99.90;;;;;;5016700;28;20041;-75
2022/08/26 08:00:28;;;;;;;29.75;15.98;;;22.60;99.90;;;;;;5029880;28;20125;-75
2022/08/26 08:02:54;;;;;;;31.38;15.90;;;22.70;99.90;;;;;;5028801;28;20045;-75
2022/08/26 08:05:22;;;;;;;31.98;16.67;;;22.70;99.90;;;;;;5030396;28;20045;-75
2022/08/26 08:07:47;;;;;;;25.75;15.93;;;22.80;99.90;;;;;;5031577;28;20054;-75
2022/08/26 08:10:17;;;;;;;29.98;15.30;;;22.80;99.90;;;;;;5015361;28;20098;-75
2022/08/26 08:12:43;;;;;;;27.85;14.55;;;22.80;99.90;;;;;;5027636;28;20049;-75
2022/08/26 08:15:12;;;;;;;29.33;14.30;;;22.90;99.90;;;;;;4997748;28;20053;-75
2022/08/26 08:17:44;;;;;;;27.80;14.15;;;23.00;99.90;;;;;;5012214;28;20136;-75
2022/08/26 08:20:11;;;;;;;26.25;13.95;;;23.00;99.90;;;;;;5044477;28;20049;-75
2022/08/26 08:22:37;;;;;;;26.98;14.60;;;23.00;99.90;;;;;;5032652;28;20049;-75
2022/08/26 08:25:04;;;;;;;29.27;13.40;;;23.10;99.90;;;;;;5032271;28;20385;-75
2022/08/26 08:27:36;;;;;;;27.20;12.98;;;23.10;99.90;;;;;;5031206;28;20509;-75
2022/08/26 08:30:03;;;;;;;26.00;12.90;;;23.20;99.90;;;;;;5029763;28;20045;-75
2022/08/26 08:32:29;;;;;;;20.38;12.38;;;23.20;99.90;;;;;;5015493;28;20477;-75
2022/08/26 08:34:56;;;;;;;23.05;12.40;;;23.40;99.90;;;;;;5010160;28;20041;-75
2022/08/26 08:37:22;;;;;;;23.27;11.70;;;23.40;99.90;;;;;;5029075;28;20426;-75
2022/08/26 08:39:48;;;;;;;25.92;11.35;;;23.50;99.90;;;;;;5012498;28;20041;-75
2022/08/26 08:42:23;;;;;;;22.20;11.15;;;23.60;99.90;;;;;;5029615;28;20037;-76
2022/08/26 08:44:52;;;;;;;22.20;11.07;;;23.80;99.90;;;;;;5030247;28;20068;-75
2022/08/26 08:47:41;;;;;;;21.70;10.95;;;24.00;99.90;;;;;;5027661;28;20515;-75
2022/08/26 08:50:25;;;;;;;26.02;10.82;;;24.10;99.90;;;;;;5030650;28;20152;-75
2022/08/26 08:53:19;;;;;;;20.52;10.15;;;24.00;99.90;;;;;;5022685;28;20080;-75
2022/08/26 08:55:57;;;;;;;23.27;10.65;;;24.10;99.90;;;;;;5017180;28;20049;-75
2022/08/26 08:58:48;;;;;;;20.90;10.10;;;24.00;99.90;;;;;;5031743;28;20067;-76
2022/08/26 09:01:24;;;;;;;20.40;10.77;;;24.10;99.90;;;;;;5014879;28;20091;-75
2022/08/26 09:04:26;;;;;;;21.83;10.95;;;24.00;99.90;;;;;;5031055;28;20049;-75
2022/08/26 09:06:55;;;;;;;18.20;10.05;;;24.00;99.90;;;;;;5028064;28;20057;-75
2022/08/26 09:09:36;;;;;;;23.67;13.18;;;24.00;99.90;;;;;;5031205;28;20514;-75
2022/08/26 09:12:03;;;;;;;18.95;10.60;;;23.90;99.90;;;;;;5031321;28;20037;-76
2022/08/26 09:14:30;;;;;;;17.38;11.05;;;23.90;99.90;;;;;;5031834;28;20049;-75
2022/08/26 09:17:24;;;;;;;19.05;11.30;;;23.90;99.90;;;;;;5028145;28;20524;-75
2022/08/26 09:19:53;;;;;;;19.98;11.07;;;23.80;99.90;;;;;;5030566;28;20485;-75
2022/08/26 09:22:35;;;;;;;19.83;10.90;;;23.70;99.90;;;;;;5028954;28;20046;-76
2022/08/26 09:25:04;;;;;;;19.67;11.07;;;23.60;99.90;;;;;;5029667;28;20099;-76
2022/08/26 09:27:56;;;;;;;21.38;10.50;;;23.60;99.90;;;;;;5032408;28;20045;-75
2022/08/26 09:30:25;;;;;;;22.45;10.23;;;23.70;99.90;;;;;;5033470;28;20052;-75
2022/08/26 09:33:18;;;;;;;16.65;9.77;;;23.60;99.90;;;;;;5031279;28;20041;-76
2022/08/26 09:35:47;;;;;;;20.42;9.55;;;23.70;99.90;;;;;;5000521;28;20057;-75
2022/08/26 09:38:22;;;;;;;14.48;7.75;;;23.80;99.90;;;;;;5018075;28;20037;-75
2022/08/26 09:40:58;;;;;;;13.52;7.43;;;24.00;99.90;;;;;;5035579;28;20033;-75
2022/08/26 09:43:24;;;;;;;14.73;7.35;;;24.10;99.90;;;;;;5033905;28;20115;-75
2022/08/26 09:45:54;;;;;;;10.70;6.30;;;24.40;99.90;;;;;;4984356;28;20080;-75
2022/08/26 09:48:47;;;;;;;11.38;6.43;;;24.60;99.90;;;;;;5034908;28;20508;-76
2022/08/26 09:51:31;;;;;;;10.15;6.10;;;24.70;99.90;;;;;;5030028;28;20075;-75
2022/08/26 09:54:01;;;;;;;10.50;5.65;;;25.10;99.90;;;;;;5018764;28;20039;-75
2022/08/26 09:56:34;;;;;;;10.85;5.57;;;25.20;99.90;;;;;;5016234;28;20482;-75
2022/08/26 09:59:01;;;;;;;7.97;5.75;;;25.40;99.90;;;;;;5018745;28;20376;-75
2022/08/26 10:01:34;;;;;;;9.40;5.57;;;25.40;99.90;;;;;;5016291;28;20052;-75
2022/08/26 10:04:12;;;;;;;11.60;5.25;;;25.60;99.90;;;;;;5031850;28;20111;-76
2022/08/26 10:07:01;;;;;;;13.25;5.10;;;25.10;99.90;;;;;;5017050;28;20045;-76
2022/08/26 10:09:32;;;;;;;9.98;4.55;;;24.70;99.90;;;;;;5033845;28;20084;-75
2022/08/26 10:12:02;;;;;;;11.70;4.68;;;24.50;99.90;;;;;;5017506;28;20045;-75
2022/08/26 10:14:41;;;;;;;16.10;5.13;;;24.50;99.90;;;;;;5044712;28;20053;-75
2022/08/26 10:17:21;;;;;;;13.00;5.10;;;24.40;99.90;;;;;;5013945;28;20044;-75
2022/08/26 10:19:53;;;;;;;13.50;4.40;;;24.40;99.90;;;;;;5017835;28;20049;-75
2022/08/26 10:22:46;;;;;;;12.15;4.53;;;24.20;99.90;;;;;;5017906;28;20363;-75
2022/08/26 10:25:19;;;;;;;12.10;4.07;;;24.20;99.90;;;;;;5031427;28;20072;-75
2022/08/26 10:27:58;;;;;;;9.63;4.20;;;24.00;99.90;;;;;;5031539;28;20053;-75
2022/08/26 10:30:45;;;;;;;10.80;3.65;;;24.00;99.90;;;;;;5034314;28;20045;-75
2022/08/26 10:33:17;;;;;;;10.88;4.22;;;23.90;99.90;;;;;;5031696;28;20114;-76
2022/08/26 10:36:47;;;;;;;14.07;3.97;;;23.80;99.90;;;;;;5033553;28;20065;-75
2022/08/26 10:38:53;;;;;;;12.65;3.70;;;23.70;99.90;;;;;;5031179;28;20060;-75
2022/08/26 10:41:25;;;;;;;9.57;4.22;;;23.40;99.90;;;;;;5034334;28;20052;-75
2022/08/26 10:43:58;;;;;;;9.25;3.85;;;23.40;99.90;;;;;;5020983;28;20050;-75
2022/08/26 10:46:28;;;;;;;13.40;4.30;;;23.30;99.90;;;;;;5014739;28;20050;-75
2022/08/26 10:49:10;;;;;;;9.50;4.30;;;23.20;99.90;;;;;;5028568;28;20183;-75
2022/08/26 10:51:53;;;;;;;11.30;4.35;;;23.00;99.90;;;;;;5017266;28;20045;-75
2022/08/26 10:54:44;;;;;;;7.88;3.58;;;23.00;99.90;;;;;;5034220;28;20057;-75
2022/08/26 10:57:21;;;;;;;10.10;4.30;;;23.00;99.90;;;;;;5033174;28;20079;-75
2022/08/26 10:59:55;;;;;;;8.50;3.47;;;23.00;99.90;;;;;;5032858;28;20053;-75
2022/08/26 11:02:39;;;;;;;10.18;3.70;;;23.10;99.90;;;;;;5033573;28;20071;-76
2022/08/26 11:05:17;;;;;;;7.80;3.40;;;23.20;99.90;;;;;;5013865;28;20050;-75
2022/08/26 11:07:47;;;;;;;8.40;3.42;;;23.30;99.90;;;;;;5038709;28;20041;-75
2022/08/26 11:10:16;;;;;;;7.30;3.78;;;23.30;99.90;;;;;;5009572;28;20099;-75
2022/08/26 11:12:44;;;;;;;8.68;3.88;;;23.30;99.90;;;;;;5011200;28;20048;-75
2022/08/26 11:15:20;;;;;;;12.65;4.15;;;23.40;99.90;;;;;;5047691;28;20041;-75
2022/08/26 11:17:46;;;;;;;8.70;3.92;;;23.30;99.90;;;;;;5033205;28;20512;-75
2022/08/26 11:20:47;;;;;;;9.73;3.95;;;23.30;99.90;;;;;;5010965;28;20069;-75
2022/08/26 11:23:19;;;;;;;11.32;3.97;;;23.50;99.90;;;;;;4960374;28;20069;-75
2022/08/26 11:25:57;;;;;;;9.38;4.18;;;23.60;99.90;;;;;;5006893;28;20438;-75
2022/08/26 11:28:46;;;;;;;12.48;4.30;;;23.70;99.90;;;;;;4997185;28;20038;-75
2022/08/26 11:31:24;;;;;;;8.90;3.65;;;23.80;99.90;;;;;;5026151;28;20172;-75
2022/08/26 11:34:12;;;;;;;9.90;4.60;;;23.80;99.90;;;;;;5031289;28;20037;-75
2022/08/26 11:36:54;;;;;;;12.05;4.38;;;23.80;99.90;;;;;;5016559;28;20053;-75
2022/08/26 11:39:30;;;;;;;8.98;4.10;;;23.80;99.90;;;;;;5014852;28;20069;-75
2022/08/26 11:42:02;;;;;;;11.63;4.53;;;23.80;99.90;;;;;;5015352;28;20124;-74
2022/08/26 11:44:48;;;;;;;9.25;4.13;;;23.70;99.90;;;;;;5031972;28;20073;-75
2022/08/26 11:47:16;;;;;;;9.40;4.30;;;23.80;99.90;;;;;;5031829;28;20050;-75
2022/08/26 11:49:42;;;;;;;7.43;3.90;;;23.70;99.90;;;;;;5012798;28;20516;-74
2022/08/26 11:52:21;;;;;;;9.73;4.07;;;23.60;99.90;;;;;;5032983;28;20416;-75
2022/08/26 11:55:10;;;;;;;8.90;4.63;;;23.50;99.90;;;;;;5016730;28;20042;-75
2022/08/26 11:57:59;;;;;;;10.40;3.97;;;23.40;99.90;;;;;;5033003;28;20053;-74
2022/08/26 12:00:36;;;;;;;10.15;4.15;;;23.30;99.90;;;;;;5028705;28;20128;-75
2022/08/26 12:03:06;;;;;;;6.72;4.03;;;23.20;99.90;;;;;;5011140;28;20132;-75
2022/08/26 12:05:42;;;;;;;12.82;5.05;;;23.20;99.90;;;;;;5032311;28;20478;-75
2022/08/26 12:08:11;;;;;;;14.60;5.35;;;23.20;99.90;;;;;;5032959;28;20099;-75
2022/08/26 12:10:37;;;;;;;9.18;4.63;;;23.30;99.90;;;;;;5027076;28;20137;-75
2022/08/26 12:13:06;;;;;;;9.88;4.03;;;23.30;99.90;;;;;;5026124;28;20044;-75
2022/08/26 12:15:34;;;;;;;10.98;3.92;;;23.30;99.90;;;;;;5028929;28;20120;-75
2022/08/26 12:18:18;;;;;;;13.10;4.68;;;23.30;99.90;;;;;;5027170;28;20049;-75
2022/08/26 12:20:53;;;;;;;9.70;3.88;;;23.30;99.90;;;;;;5029589;28;20486;-75
2022/08/26 12:23:29;;;;;;;8.38;3.78;;;23.20;99.90;;;;;;5003631;28;20042;-75
2022/08/26 12:26:25;;;;;;;12.85;3.88;;;23.10;99.90;;;;;;5011985;28;21051;-74
2022/08/26 12:29:07;;;;;;;12.90;3.38;;;23.00;99.90;;;;;;5000815;28;20053;-75
2022/08/26 12:31:35;;;;;;;9.90;3.70;;;22.80;99.90;;;;;;5032331;28;20187;-75
2022/08/26 12:34:04;;;;;;;11.70;3.78;;;22.70;99.90;;;;;;5032167;28;20474;-75
2022/08/26 12:36:37;;;;;;;8.35;3.58;;;22.70;99.90;;;;;;5031671;28;20462;-75
2022/08/26 12:39:13;;;;;;;11.00;3.67;;;22.80;99.90;;;;;;5027382;28;20045;-75
2022/08/26 12:41:43;;;;;;;12.25;3.58;;;23.00;99.90;;;;;;5030500;28;20045;-75
2022/08/26 12:44:32;;;;;;;14.32;3.80;;;23.20;99.90;;;;;;5015394;28;20631;-75
2022/08/26 12:47:08;;;;;;;11.63;3.60;;;23.50;99.90;;;;;;5014887;28;20050;-76
2022/08/26 12:49:38;;;;;;;12.52;3.60;;;23.80;99.90;;;;;;5028741;28;20049;-75
2022/08/26 12:52:06;;;;;;;12.82;3.60;;;24.10;99.90;;;;;;5027334;28;20038;-74
2022/08/26 12:57:24;;;;;;;13.77;3.60;;;24.10;99.90;;;;;;5031726;28;20053;-75